createdAt,value
2022-08-01T00:00:52.859Z,59.46
2022-08-01T00:03:20.869Z,59.43
2022-08-01T00:05:50.077Z,59.76
2022-08-01T00:08:18.122Z,59.78
2022-08-01T00:10:45.987Z,59.37
2022-08-01T00:13:13.979Z,59.79
2022-08-01T00:15:41.832Z,59.50
2022-08-01T00:18:21.987Z,59.67
2022-08-01T00:20:51.327Z,59.37
2022-08-01T00:23:19.140Z,59.89
2022-08-01T00:25:47.138Z,59.63
2022-08-01T00:28:15.085Z,59.82
2022-08-01T00:30:43.175Z,59.47
2022-08-01T00:33:11.016Z,60.00
2022-08-01T00:35:39.012Z,59.59
2022-08-01T00:38:08.278Z,59.66
2022-08-01T00:40:36.316Z,59.61
2022-08-01T00:43:04.156Z,59.55
2022-08-01T00:45:32.149Z,60.11
2022-08-01T00:47:59.982Z,60.28
2022-08-01T00:50:28.018Z,59.78
2022-08-01T00:52:56.058Z,60.00
2022-08-01T00:55:25.358Z,60.11
2022-08-01T00:58:02.361Z,59.73
2022-08-01T01:00:34.837Z,59.61
2022-08-01T01:03:23.488Z,60.00
2022-08-01T01:05:58.452Z,60.25
2022-08-01T01:08:29.147Z,59.98
2022-08-01T01:11:00.438Z,60.04
2022-08-01T01:13:30.876Z,59.88
2022-08-01T01:16:01.121Z,59.76
2022-08-01T01:18:32.796Z,60.10
2022-08-01T01:21:03.407Z,60.40
2022-08-01T01:23:42.694Z,59.87
2022-08-01T01:26:19.692Z,60.09
2022-08-01T01:29:12.903Z,60.05
2022-08-01T01:31:44.077Z,59.76
2022-08-01T01:34:13.343Z,60.35
2022-08-01T01:36:41.547Z,59.94
2022-08-01T01:39:09.663Z,60.06
2022-08-01T01:41:37.980Z,59.99
2022-08-01T01:44:06.403Z,59.77
2022-08-01T01:46:35.609Z,60.38
2022-08-01T01:49:03.630Z,60.46
2022-08-01T01:51:31.510Z,59.78
2022-08-01T01:54:00.121Z,60.29
2022-08-01T01:56:28.187Z,59.84
2022-08-01T01:58:57.740Z,60.21
2022-08-01T02:01:58.351Z,60.06
2022-08-01T02:04:16.806Z,59.78
2022-08-01T02:06:45.119Z,60.24
2022-08-01T02:09:13.613Z,59.88
2022-08-01T02:12:07.621Z,59.81
2022-08-01T02:14:29.278Z,59.75
2022-08-01T02:16:59.202Z,59.95
2022-08-01T02:19:28.725Z,59.69
2022-08-01T02:21:58.015Z,59.73
2022-08-01T02:24:30.794Z,60.00
2022-08-01T02:27:00.152Z,59.64
2022-08-01T02:29:30.126Z,60.22
2022-08-01T02:31:58.150Z,59.81
2022-08-01T02:34:26.575Z,59.92
2022-08-01T02:36:55.833Z,59.62
2022-08-01T02:39:23.666Z,59.48
2022-08-01T02:41:52.390Z,59.77
2022-08-01T02:44:24.617Z,59.54
2022-08-01T02:46:53.679Z,59.94
2022-08-01T02:49:22.143Z,60.08
2022-08-01T02:51:50.197Z,59.62
2022-08-01T02:54:19.858Z,59.93
2022-08-01T02:56:47.838Z,59.81
2022-08-01T02:59:19.796Z,59.96
2022-08-01T03:01:50.225Z,59.91
2022-08-01T03:04:18.818Z,59.94
2022-08-01T03:06:46.741Z,59.49
2022-08-01T03:09:14.698Z,59.63
2022-08-01T03:11:46.564Z,59.68
2022-08-01T03:14:14.660Z,59.66
2022-08-01T03:16:44.066Z,60.15
2022-08-01T03:19:13.194Z,60.02
2022-08-01T03:21:41.596Z,60.15
2022-08-01T03:24:09.889Z,59.64
2022-08-01T03:26:38.368Z,59.62
2022-08-01T03:29:08.516Z,60.11
2022-08-01T03:31:36.786Z,60.10
2022-08-01T03:34:05.969Z,59.58
2022-08-01T03:36:35.781Z,60.09
2022-08-01T03:39:05.321Z,59.94
2022-08-01T03:41:36.029Z,59.82
2022-08-01T03:44:18.253Z,59.83
2022-08-01T03:46:48.569Z,59.89
2022-08-01T03:49:37.090Z,59.58
2022-08-01T03:52:06.319Z,60.22
2022-08-01T03:54:36.890Z,60.10
2022-08-01T03:57:04.901Z,59.66
2022-08-01T03:59:34.517Z,59.83
2022-08-01T04:02:02.526Z,60.03
2022-08-01T04:04:30.723Z,59.71
2022-08-01T04:06:58.590Z,59.74
2022-08-01T04:09:26.618Z,60.21
2022-08-01T04:11:54.615Z,60.09
2022-08-01T04:14:23.693Z,60.41
2022-08-01T04:16:53.010Z,60.88
2022-08-01T04:19:21.374Z,60.66
2022-08-01T04:21:49.299Z,60.97
2022-08-01T04:24:19.832Z,60.90
2022-08-01T04:26:48.549Z,60.97
2022-08-01T04:29:16.876Z,61.20
2022-08-01T04:31:45.372Z,61.25
2022-08-01T04:34:15.208Z,60.83
2022-08-01T04:36:43.825Z,60.82
2022-08-01T04:39:11.827Z,60.93
2022-08-01T04:41:39.657Z,60.61
2022-08-01T04:44:07.878Z,61.33
2022-08-01T04:46:35.994Z,60.72
2022-08-01T04:49:04.137Z,60.87
2022-08-01T04:51:33.394Z,61.15
2022-08-01T04:54:02.011Z,61.07
2022-08-01T04:56:29.900Z,60.94
2022-08-01T04:59:19.633Z,60.92
2022-08-01T05:01:51.563Z,60.13
2022-08-01T05:04:19.713Z,60.51
2022-08-01T05:06:48.908Z,60.12
2022-08-01T05:09:17.012Z,60.33
2022-08-01T05:11:44.884Z,59.90
2022-08-01T05:14:12.871Z,59.68
2022-08-01T05:16:40.730Z,59.82
2022-08-01T05:19:09.155Z,59.97
2022-08-01T05:21:37.179Z,59.74
2022-08-01T05:24:07.132Z,59.46
2022-08-01T05:26:36.592Z,59.45
2022-08-01T05:29:04.738Z,59.27
2022-08-01T05:31:35.098Z,59.06
2022-08-01T05:34:03.216Z,58.79
2022-08-01T05:36:31.092Z,58.95
2022-08-01T05:38:59.124Z,58.97
2022-08-01T05:41:28.614Z,58.73
2022-08-01T05:43:56.641Z,58.89
2022-08-01T05:46:27.439Z,58.88
2022-08-01T05:48:55.862Z,58.56
2022-08-01T05:51:23.783Z,58.76
2022-08-01T05:53:51.770Z,58.53
2022-08-01T05:56:19.695Z,58.44
2022-08-01T05:58:48.906Z,58.29
2022-08-01T06:01:16.882Z,58.30
2022-08-01T06:03:44.990Z,57.94
2022-08-01T06:06:12.886Z,57.88
2022-08-01T06:08:40.799Z,57.60
2022-08-01T06:11:08.700Z,57.30
2022-08-01T06:13:47.060Z,57.35
2022-08-01T06:16:17.682Z,57.55
2022-08-01T06:18:45.561Z,56.87
2022-08-01T06:21:13.654Z,57.06
2022-08-01T06:23:42.493Z,57.16
2022-08-01T06:26:10.516Z,57.03
2022-08-01T06:28:38.659Z,56.47
2022-08-01T06:31:06.589Z,56.80
2022-08-01T06:33:35.859Z,56.54
2022-08-01T06:36:03.851Z,56.27
2022-08-01T06:38:31.750Z,56.07
2022-08-01T06:40:59.697Z,55.91
2022-08-01T06:43:27.569Z,55.72
2022-08-01T06:45:56.381Z,55.54
2022-08-01T06:48:24.527Z,56.07
2022-08-01T06:51:08.902Z,55.82
2022-08-01T06:53:37.543Z,55.49
2022-08-01T06:56:06.088Z,55.74
2022-08-01T06:58:35.641Z,55.66
2022-08-01T07:01:05.152Z,55.71
2022-08-01T07:03:54.103Z,55.01
2022-08-01T07:06:23.115Z,52.53
2022-08-01T07:08:51.106Z,50.47
2022-08-01T07:11:19.384Z,49.16
2022-08-01T07:13:47.628Z,49.17
2022-08-01T07:16:15.701Z,48.62
2022-08-01T07:18:44.723Z,48.38
2022-08-01T07:21:18.531Z,48.58
2022-08-01T07:24:01.960Z,48.70
2022-08-01T07:26:39.351Z,48.76
2022-08-01T07:29:20.622Z,48.63
2022-08-01T07:31:48.519Z,48.04
2022-08-01T07:34:16.494Z,47.67
2022-08-01T07:36:44.832Z,47.79
2022-08-01T07:39:15.112Z,47.96
2022-08-01T07:42:04.614Z,47.69
2022-08-01T07:44:31.008Z,47.79
2022-08-01T07:46:59.170Z,47.44
2022-08-01T07:49:27.094Z,47.11
2022-08-01T07:52:02.703Z,46.93
2022-08-01T07:54:34.565Z,46.92
2022-08-01T07:57:03.084Z,46.90
2022-08-01T07:59:32.004Z,45.94
2022-08-01T08:02:00.280Z,46.87
2022-08-01T08:04:28.567Z,46.61
2022-08-01T08:06:56.744Z,45.71
2022-08-01T08:09:25.106Z,45.64
2022-08-01T08:11:54.973Z,45.99
2022-08-01T08:14:32.155Z,46.31
2022-08-01T08:17:01.942Z,45.29
2022-08-01T08:19:37.373Z,45.47
2022-08-01T08:22:07.185Z,44.76
2022-08-01T08:24:35.391Z,44.93
2022-08-01T08:27:05.071Z,44.59
2022-08-01T08:29:33.526Z,43.55
2022-08-01T08:32:02.104Z,42.91
2022-08-01T08:34:30.456Z,42.43
2022-08-01T08:36:59.269Z,42.17
2022-08-01T08:39:27.387Z,41.46
2022-08-01T08:41:55.472Z,40.93
2022-08-01T08:44:25.289Z,39.33
2022-08-01T08:46:53.798Z,37.42
2022-08-01T08:49:23.805Z,36.04
2022-08-01T08:51:53.313Z,33.59
2022-08-01T08:54:28.930Z,32.35
2022-08-01T08:57:00.378Z,31.55
2022-08-01T08:59:30.467Z,29.92
2022-08-01T09:01:58.480Z,28.85
2022-08-01T09:04:27.121Z,27.93
2022-08-01T09:06:55.545Z,28.36
2022-08-01T09:09:23.688Z,28.73
2022-08-01T09:11:56.884Z,29.71
2022-08-01T09:14:28.143Z,30.43
2022-08-01T09:17:08.650Z,31.15
2022-08-01T09:19:39.717Z,31.80
2022-08-01T09:22:09.969Z,32.96
2022-08-01T09:24:39.526Z,33.49
2022-08-01T09:27:19.726Z,34.96
2022-08-01T09:30:00.587Z,34.97
2022-08-01T09:32:35.926Z,35.76
2022-08-01T09:35:30.871Z,36.24
2022-08-01T09:38:16.746Z,36.59
2022-08-01T09:40:49.301Z,37.02
2022-08-01T09:43:17.564Z,37.99
2022-08-01T09:45:48.955Z,37.82
2022-08-01T09:48:20.041Z,37.83
2022-08-01T09:50:52.064Z,36.38
2022-08-01T09:53:20.803Z,34.67
2022-08-01T09:56:10.510Z,33.33
2022-08-01T09:59:00.319Z,31.06
2022-08-01T10:01:36.911Z,29.18
2022-08-01T10:04:12.414Z,29.40
2022-08-01T10:06:41.923Z,29.48
2022-08-01T10:09:11.219Z,29.39
2022-08-01T10:11:40.272Z,30.59
2022-08-01T10:14:08.756Z,30.89
2022-08-01T10:16:38.287Z,30.74
2022-08-01T10:19:14.650Z,30.51
2022-08-01T10:21:58.567Z,30.84
2022-08-01T10:24:30.701Z,29.69
2022-08-01T10:27:08.292Z,29.10
2022-08-01T10:30:05.603Z,26.96
2022-08-01T10:32:33.640Z,25.17
2022-08-01T10:35:06.215Z,23.90
2022-08-01T10:37:52.216Z,22.97
2022-08-01T10:40:35.581Z,22.10
2022-08-01T10:43:04.015Z,22.04
2022-08-01T10:45:31.947Z,21.79
2022-08-01T10:48:02.438Z,21.76
2022-08-01T10:50:32.533Z,21.18
2022-08-01T10:53:16.136Z,19.41
2022-08-01T10:55:52.697Z,19.39
2022-08-01T10:58:24.342Z,19.37
2022-08-01T11:01:26.677Z,19.46
2022-08-01T11:04:06.222Z,21.01
2022-08-01T11:06:55.380Z,22.31
2022-08-01T11:09:36.476Z,23.18
2022-08-01T11:12:08.206Z,24.27
2022-08-01T11:15:29.759Z,24.71
2022-08-01T11:18:00.445Z,26.07
2022-08-01T11:20:31.582Z,25.67
2022-08-01T11:23:36.376Z,24.82
2022-08-01T11:26:29.001Z,23.63
2022-08-01T11:29:22.601Z,21.95
2022-08-01T11:31:51.349Z,20.47
2022-08-01T11:34:19.773Z,19.94
2022-08-01T11:37:03.485Z,18.88
2022-08-01T11:39:35.521Z,20.35
2022-08-01T11:42:22.414Z,19.83
2022-08-01T11:44:52.383Z,20.18
2022-08-01T11:47:46.705Z,20.88
2022-08-01T11:50:36.944Z,21.89
2022-08-01T11:53:15.797Z,23.31
2022-08-01T11:58:22.301Z,23.87
2022-08-01T12:00:55.504Z,24.26
2022-08-01T12:03:33.660Z,25.10
2022-08-01T12:06:02.336Z,24.24
2022-08-01T12:08:30.625Z,24.53
2022-08-01T12:11:02.556Z,24.58
2022-08-01T12:13:40.193Z,25.19
2022-08-01T12:16:09.065Z,24.93
2022-08-01T12:18:40.462Z,25.50
2022-08-01T12:21:08.297Z,25.41
2022-08-01T12:23:36.145Z,25.78
2022-08-01T12:26:05.074Z,25.83
2022-08-01T12:28:41.079Z,25.62
2022-08-01T12:31:08.947Z,26.66
2022-08-01T12:33:36.923Z,27.34
2022-08-01T12:36:04.901Z,27.64
2022-08-01T12:38:33.981Z,28.25
2022-08-01T12:41:02.033Z,28.75
2022-08-01T12:43:29.897Z,29.42
2022-08-01T12:46:00.906Z,29.89
2022-08-01T12:48:29.054Z,29.82
2022-08-01T12:50:58.531Z,29.70
2022-08-01T12:53:27.038Z,30.69
2022-08-01T12:56:07.815Z,30.53
2022-08-01T12:58:35.862Z,30.17
2022-08-01T13:01:09.159Z,31.42
2022-08-01T13:03:37.073Z,30.77
2022-08-01T13:06:12.677Z,29.69
2022-08-01T13:08:40.495Z,30.74
2022-08-01T13:11:10.071Z,30.79
2022-08-01T13:13:40.158Z,30.09
2022-08-01T13:16:12.492Z,30.23
2022-08-01T13:18:50.473Z,29.84
2022-08-01T13:21:19.072Z,29.56
2022-08-01T13:24:04.237Z,30.03
2022-08-01T13:26:45.997Z,30.71
2022-08-01T13:29:14.596Z,30.74
2022-08-01T13:31:44.164Z,29.68
2022-08-01T13:34:11.983Z,29.25
2022-08-01T13:36:43.047Z,29.58
2022-08-01T13:39:34.371Z,30.18
2022-08-01T13:42:02.222Z,30.40
2022-08-01T13:44:30.084Z,29.92
2022-08-01T13:46:59.389Z,30.74
2022-08-01T13:49:37.382Z,30.53
2022-08-01T13:52:07.574Z,30.56
2022-08-01T13:54:35.836Z,30.74
2022-08-01T13:57:03.730Z,30.83
2022-08-01T13:59:31.600Z,30.92
2022-08-01T14:02:00.863Z,30.90
2022-08-01T14:04:28.690Z,30.97
2022-08-01T14:06:56.637Z,31.01
2022-08-01T14:09:26.751Z,31.50
2022-08-01T14:12:00.485Z,31.48
2022-08-01T14:14:28.347Z,30.92
2022-08-01T14:16:56.247Z,31.53
2022-08-01T14:19:38.918Z,31.79
2022-08-01T14:22:08.464Z,32.64
2022-08-01T14:24:36.705Z,33.21
2022-08-01T14:27:06.943Z,32.31
2022-08-01T14:30:02.868Z,32.37
2022-08-01T14:32:25.958Z,33.25
2022-08-01T14:34:58.107Z,33.37
2022-08-01T14:37:29.170Z,33.23
2022-08-01T14:39:58.972Z,33.43
2022-08-01T14:42:26.901Z,33.51
2022-08-01T14:44:54.814Z,34.02
2022-08-01T14:47:22.765Z,33.31
2022-08-01T14:49:51.485Z,32.99
2022-08-01T14:52:21.553Z,32.60
2022-08-01T14:54:49.474Z,32.85
2022-08-01T14:57:19.230Z,33.17
2022-08-01T14:59:47.273Z,33.20
2022-08-01T15:02:18.147Z,33.06
2022-08-01T15:04:46.171Z,32.32
2022-08-01T15:07:13.999Z,32.86
2022-08-01T15:09:43.263Z,33.31
2022-08-01T15:12:11.398Z,33.16
2022-08-01T15:14:51.374Z,33.15
2022-08-01T15:17:20.265Z,32.93
2022-08-01T15:19:50.972Z,33.42
2022-08-01T15:22:20.293Z,33.78
2022-08-01T15:24:51.934Z,33.92
2022-08-01T15:27:22.497Z,33.87
2022-08-01T15:29:50.347Z,34.36
2022-08-01T15:32:18.228Z,33.54
2022-08-01T15:34:46.208Z,33.97
2022-08-01T15:37:14.422Z,34.41
2022-08-01T15:39:42.334Z,34.25
2022-08-01T15:42:12.727Z,34.54
2022-08-01T15:44:40.551Z,34.87
2022-08-01T15:47:08.483Z,34.54
2022-08-01T15:49:37.089Z,34.89
2022-08-01T15:52:05.514Z,35.07
2022-08-01T15:54:33.861Z,35.17
2022-08-01T15:57:01.755Z,35.26
2022-08-01T15:59:30.990Z,35.11
2022-08-01T16:01:59.222Z,34.96
2022-08-01T16:04:29.872Z,35.36
2022-08-01T16:06:58.196Z,35.31
2022-08-01T16:09:26.952Z,35.28
2022-08-01T16:11:55.011Z,35.25
2022-08-01T16:14:22.869Z,35.53
2022-08-01T16:16:55.192Z,35.43
2022-08-01T16:19:24.144Z,36.03
2022-08-01T16:21:53.173Z,35.75
2022-08-01T16:24:20.999Z,35.69
2022-08-01T16:26:49.071Z,36.05
2022-08-01T16:29:16.957Z,36.22
2022-08-01T16:31:52.285Z,35.76
2022-08-01T16:34:34.119Z,35.75
2022-08-01T16:37:03.639Z,35.83
2022-08-01T16:39:35.399Z,36.13
2022-08-01T16:42:03.306Z,36.58
2022-08-01T16:44:34.117Z,36.39
2022-08-01T16:47:03.103Z,36.79
2022-08-01T16:49:31.988Z,36.47
2022-08-01T16:52:02.075Z,36.39
2022-08-01T16:54:30.147Z,36.80
2022-08-01T16:57:08.306Z,36.97
2022-08-01T16:59:40.862Z,36.38
2022-08-01T17:02:09.901Z,36.39
2022-08-01T17:04:37.754Z,36.41
2022-08-01T17:07:07.341Z,36.92
2022-08-01T17:09:38.635Z,36.81
2022-08-01T17:12:10.662Z,37.10
2022-08-01T17:14:39.950Z,36.91
2022-08-01T17:17:08.625Z,37.05
2022-08-01T17:19:36.873Z,37.18
2022-08-01T17:22:06.071Z,37.12
2022-08-01T17:24:34.042Z,36.76
2022-08-01T17:27:01.995Z,37.05
2022-08-01T17:29:43.731Z,37.47
2022-08-01T17:32:12.473Z,37.49
2022-08-01T17:34:40.413Z,37.67
2022-08-01T17:37:10.031Z,37.73
2022-08-01T17:39:39.493Z,38.05
2022-08-01T17:42:08.455Z,38.16
2022-08-01T17:44:36.332Z,38.22
2022-08-01T17:47:06.144Z,38.21
2022-08-01T17:49:53.810Z,38.50
2022-08-01T17:52:26.196Z,38.40
2022-08-01T17:54:58.190Z,38.84
2022-08-01T17:57:26.331Z,39.21
2022-08-01T17:59:54.220Z,38.75
2022-08-01T18:02:22.446Z,38.61
2022-08-01T18:04:52.313Z,38.24
2022-08-01T18:07:20.430Z,38.66
2022-08-01T18:09:49.799Z,39.16
2022-08-01T18:12:18.397Z,38.65
2022-08-01T18:14:46.219Z,38.69
2022-08-01T18:17:14.456Z,38.68
2022-08-01T18:19:46.562Z,39.34
2022-08-01T18:22:33.186Z,39.74
2022-08-01T18:25:08.635Z,40.01
2022-08-01T18:28:23.388Z,40.37
2022-08-01T18:30:24.966Z,40.70
2022-08-01T18:32:53.508Z,40.68
2022-08-01T18:35:22.554Z,40.92
2022-08-01T18:37:55.474Z,41.39
2022-08-01T18:40:24.811Z,41.13
2022-08-01T18:42:54.400Z,41.20
2022-08-01T18:45:22.234Z,41.58
2022-08-01T18:47:50.221Z,41.99
2022-08-01T18:50:18.021Z,41.60
2022-08-01T18:52:46.022Z,42.48
2022-08-01T18:55:13.853Z,42.15
2022-08-01T18:57:43.059Z,42.20
2022-08-01T19:00:13.716Z,42.34
2022-08-01T19:02:41.916Z,43.13
2022-08-01T19:05:10.477Z,43.05
2022-08-01T19:08:05.247Z,42.84
2022-08-01T19:10:26.409Z,43.52
2022-08-01T19:12:55.732Z,43.32
2022-08-01T19:15:23.568Z,43.60
2022-08-01T19:17:51.481Z,43.53
2022-08-01T19:20:19.303Z,43.75
2022-08-01T19:22:47.237Z,44.10
2022-08-01T19:25:14.489Z,43.84
2022-08-01T19:27:44.191Z,44.09
2022-08-01T19:30:14.306Z,43.81
2022-08-01T19:32:43.145Z,44.19
2022-08-01T19:35:12.243Z,44.20
2022-08-01T19:37:44.004Z,44.09
2022-08-01T19:40:27.656Z,44.40
2022-08-01T19:42:56.658Z,44.23
2022-08-01T19:45:28.297Z,44.38
2022-08-01T19:47:57.599Z,44.36
2022-08-01T19:50:26.469Z,44.60
2022-08-01T19:52:54.933Z,44.73
2022-08-01T19:55:23.383Z,44.86
2022-08-01T19:58:10.559Z,45.05
2022-08-01T20:00:40.561Z,45.32
2022-08-01T20:03:08.739Z,45.51
2022-08-01T20:05:37.230Z,45.47
2022-08-01T20:08:06.940Z,45.85
2022-08-01T20:10:35.702Z,45.31
2022-08-01T20:13:04.783Z,45.54
2022-08-01T20:15:32.631Z,45.78
2022-08-01T20:18:01.954Z,46.06
2022-08-01T20:20:29.849Z,45.99
2022-08-01T20:22:59.979Z,46.33
2022-08-01T20:25:33.568Z,46.84
2022-08-01T20:28:08.790Z,47.08
2022-08-01T20:30:36.664Z,46.75
2022-08-01T20:33:05.906Z,47.47
2022-08-01T20:35:53.483Z,47.20
2022-08-01T20:38:23.023Z,47.31
2022-08-01T20:40:51.062Z,47.40
2022-08-01T20:43:20.110Z,47.62
2022-08-01T20:45:48.475Z,48.04
2022-08-01T20:48:18.341Z,48.17
2022-08-01T20:51:03.745Z,48.54
2022-08-01T20:53:31.788Z,48.36
2022-08-01T20:56:01.889Z,48.32
2022-08-01T20:58:34.881Z,48.52
2022-08-01T21:01:03.020Z,48.65
2022-08-01T21:03:37.999Z,48.61
2022-08-01T21:06:08.923Z,48.59
2022-08-01T21:08:39.411Z,48.89
2022-08-01T21:11:07.911Z,49.00
2022-08-01T21:13:38.187Z,49.40
2022-08-01T21:16:23.912Z,49.44
2022-08-01T21:21:46.119Z,49.97
2022-08-01T21:24:16.877Z,50.53
2022-08-01T21:26:44.831Z,50.49
2022-08-01T21:29:12.781Z,50.32
2022-08-01T21:31:41.428Z,50.77
2022-08-01T21:36:44.759Z,50.80
2022-08-01T21:39:12.567Z,51.21
2022-08-01T21:42:04.806Z,51.45
2022-08-01T21:44:28.640Z,51.60
2022-08-01T21:46:57.426Z,51.76
2022-08-01T21:49:25.599Z,51.73
2022-08-01T21:51:55.659Z,51.72
2022-08-01T21:54:28.400Z,51.65
2022-08-01T21:56:59.745Z,52.07
2022-08-01T21:59:31.078Z,52.23
2022-08-01T22:02:01.296Z,52.33
2022-08-01T22:04:34.511Z,52.61
2022-08-01T22:07:03.920Z,52.66
2022-08-01T22:09:32.149Z,52.77
2022-08-01T22:12:01.618Z,53.05
2022-08-01T22:14:30.275Z,52.90
2022-08-01T22:16:58.432Z,53.35
2022-08-01T22:19:41.316Z,53.05
2022-08-01T22:22:44.703Z,53.33
2022-08-01T22:25:02.933Z,53.24
2022-08-01T22:28:05.507Z,53.59
2022-08-01T22:30:19.007Z,53.78
2022-08-01T22:33:06.842Z,53.99
2022-08-01T22:35:35.336Z,54.05
2022-08-01T22:38:04.558Z,53.97
2022-08-01T22:40:33.164Z,54.04
2022-08-01T22:43:01.564Z,54.02
2022-08-01T22:45:32.356Z,53.83
2022-08-01T22:48:03.495Z,54.66
2022-08-01T22:50:36.278Z,54.50
2022-08-01T22:53:13.076Z,54.58
2022-08-01T22:55:58.384Z,54.64
2022-08-01T22:58:27.663Z,54.78
2022-08-01T23:00:56.073Z,55.00
2022-08-01T23:03:26.545Z,54.96
2022-08-01T23:05:57.288Z,55.11
2022-08-01T23:08:26.515Z,55.10
2022-08-01T23:10:54.587Z,55.25
2022-08-01T23:13:22.455Z,55.52
2022-08-01T23:15:52.401Z,55.68
2022-08-01T23:18:20.584Z,55.76
2022-08-01T23:20:48.652Z,55.76
2022-08-01T23:23:16.524Z,55.95
2022-08-01T23:25:45.866Z,56.01
2022-08-01T23:28:13.740Z,56.23
2022-08-01T23:30:41.762Z,56.32
2022-08-01T23:33:09.637Z,56.58
2022-08-01T23:35:43.260Z,56.36
2022-08-01T23:38:11.153Z,56.58
2022-08-01T23:40:39.232Z,56.59
2022-08-01T23:43:16.879Z,56.77
2022-08-01T23:46:04.078Z,56.59
2022-08-01T23:48:34.425Z,56.73
2022-08-01T23:51:02.427Z,56.76
2022-08-01T23:53:30.936Z,56.91
2022-08-01T23:56:01.734Z,57.10
2022-08-01T23:58:32.166Z,57.12
